createdAt,value
2019-05-18T00:01:47.550Z,94.07
2019-05-18T00:04:20.476Z,94.13
2019-05-18T00:06:53.895Z,93.98
2019-05-18T00:09:27.079Z,93.57
2019-05-18T00:12:00.198Z,93.80
2019-05-18T00:14:33.157Z,93.93
2019-05-18T00:17:12.807Z,94.11
2019-05-18T00:19:41.218Z,94.11
2019-05-18T00:22:14.241Z,95.01
2019-05-18T00:24:47.222Z,95.01
2019-05-18T00:27:20.179Z,95.11
2019-05-18T00:29:53.092Z,95.34
2019-05-18T00:32:26.056Z,95.37
2019-05-18T00:34:59.005Z,95.37
2019-05-18T00:37:32.293Z,95.58
2019-05-18T00:40:06.861Z,95.61
2019-05-18T00:42:39.812Z,95.09
2019-05-18T00:45:13.407Z,95.09
2019-05-18T00:47:46.407Z,95.57
2019-05-18T00:50:19.582Z,95.29
2019-05-18T00:52:52.740Z,95.20
2019-05-18T00:55:25.812Z,95.20
2019-05-18T00:57:58.813Z,95.06
2019-05-18T01:00:31.852Z,95.25
2019-05-18T01:03:04.850Z,95.42
2019-05-18T01:05:38.235Z,95.63
2019-05-18T01:08:11.636Z,95.63
2019-05-18T01:10:44.618Z,95.51
2019-05-18T01:13:17.673Z,95.51
2019-05-18T01:15:50.655Z,95.62
2019-05-18T01:18:23.705Z,95.78
2019-05-18T01:20:58.209Z,95.75
2019-05-18T01:23:31.129Z,95.82
2019-05-18T01:26:04.189Z,95.42
2019-05-18T01:28:37.197Z,95.42
2019-05-18T01:31:10.270Z,95.67
2019-05-18T01:33:43.341Z,94.95
2019-05-18T01:36:16.263Z,94.87
2019-05-18T01:38:49.504Z,94.87
2019-05-18T01:41:22.741Z,94.82
2019-05-18T01:43:55.718Z,94.36
2019-05-18T01:46:28.890Z,94.47
2019-05-18T01:49:01.901Z,94.16
2019-05-18T01:51:34.914Z,94.16
2019-05-18T01:54:07.978Z,94.57
2019-05-18T01:56:41.020Z,94.81
2019-05-18T01:59:14.084Z,94.81
2019-05-18T02:01:47.134Z,94.83
2019-05-18T02:04:20.261Z,94.83
2019-05-18T02:06:53.267Z,94.55
2019-05-18T02:09:26.293Z,94.42
2019-05-18T02:11:59.226Z,94.96
2019-05-18T02:14:32.279Z,95.15
2019-05-18T02:17:05.316Z,95.17
2019-05-18T02:19:38.371Z,95.17
2019-05-18T02:22:11.440Z,94.81
2019-05-18T02:24:44.364Z,94.95
2019-05-18T02:27:17.330Z,95.09
2019-05-18T02:29:50.388Z,95.10
2019-05-18T02:32:23.472Z,95.10
2019-05-18T02:34:56.542Z,94.38
2019-05-18T02:37:29.560Z,94.68
2019-05-18T02:40:02.642Z,94.79
2019-05-18T02:42:35.714Z,94.79
2019-05-18T02:45:09.232Z,95.09
2019-05-18T02:47:42.274Z,94.87
2019-05-18T02:50:15.791Z,95.19
2019-05-18T02:52:48.801Z,95.19
2019-05-18T02:55:21.798Z,95.39
2019-05-18T02:57:54.713Z,95.35
2019-05-18T03:00:27.906Z,95.35
2019-05-18T03:03:00.911Z,95.47
2019-05-18T03:05:33.975Z,95.47
2019-05-18T03:08:06.980Z,95.05
2019-05-18T03:10:40.249Z,95.60
2019-05-18T03:13:13.248Z,95.41
2019-05-18T03:15:46.373Z,95.41
2019-05-18T03:18:19.488Z,95.58
2019-05-18T03:20:52.594Z,95.98
2019-05-18T03:23:25.479Z,95.88
2019-05-18T03:25:58.545Z,96.32
2019-05-18T03:28:31.442Z,96.32
2019-05-18T03:31:04.861Z,96.62
2019-05-18T03:33:37.798Z,96.57
2019-05-18T03:36:10.801Z,96.57
2019-05-18T03:38:44.060Z,96.44
2019-05-18T03:41:17.025Z,96.48
2019-05-18T03:43:49.996Z,97.00
2019-05-18T03:46:24.093Z,97.45
2019-05-18T03:48:58.242Z,97.47
2019-05-18T03:51:31.230Z,97.20
2019-05-18T03:54:04.321Z,97.72
2019-05-18T03:56:37.779Z,97.72
2019-05-18T03:59:10.719Z,97.52
2019-05-18T04:01:43.797Z,97.69
2019-05-18T04:04:18.534Z,98.07
2019-05-18T04:06:51.540Z,98.15
2019-05-18T04:09:24.542Z,98.08
2019-05-18T04:11:57.889Z,98.02
2019-05-18T04:14:30.851Z,97.96
2019-05-18T04:17:03.924Z,98.34
2019-05-18T04:19:46.269Z,99.18
2019-05-18T04:22:12.368Z,99.18
2019-05-18T04:24:45.252Z,99.07
2019-05-18T04:27:18.471Z,98.83
2019-05-18T04:29:51.455Z,98.63
2019-05-18T04:32:24.519Z,98.45
2019-05-18T04:34:57.520Z,98.41
2019-05-18T04:37:30.580Z,98.19
2019-05-18T04:40:03.707Z,98.19
2019-05-18T04:42:36.691Z,98.11
2019-05-18T04:45:10.080Z,98.01
2019-05-18T04:47:43.354Z,98.22
2019-05-18T04:50:17.139Z,98.22
2019-05-18T04:52:50.363Z,98.16
2019-05-18T04:55:23.316Z,97.91
2019-05-18T04:57:56.477Z,97.71
2019-05-18T05:00:29.475Z,97.45
2019-05-18T05:03:02.510Z,97.17
2019-05-18T05:05:35.398Z,96.72
2019-05-18T05:08:08.709Z,96.61
2019-05-18T05:10:41.738Z,96.65
2019-05-18T05:13:14.817Z,96.63
2019-05-18T05:15:48.008Z,96.42
2019-05-18T05:18:21.041Z,95.58
2019-05-18T05:20:53.953Z,95.58
2019-05-18T05:23:27.020Z,95.66
2019-05-18T05:26:00.415Z,94.19
2019-05-18T05:28:33.424Z,94.19
2019-05-18T05:31:06.441Z,94.83
2019-05-18T05:33:39.606Z,95.42
2019-05-18T05:36:12.577Z,94.58
2019-05-18T05:38:45.560Z,94.58
2019-05-18T05:41:18.692Z,94.24
2019-05-18T05:43:51.708Z,93.83
2019-05-18T05:46:24.713Z,92.85
2019-05-18T05:48:57.670Z,92.87
2019-05-18T05:51:30.714Z,92.07
2019-05-18T05:54:04.297Z,91.02
2019-05-18T05:56:37.308Z,91.02
2019-05-18T05:59:10.283Z,89.82
2019-05-18T06:01:43.320Z,89.74
2019-05-18T06:04:16.373Z,89.74
2019-05-18T06:06:49.333Z,89.80
2019-05-18T06:09:22.693Z,88.78
2019-05-18T06:11:55.769Z,87.94
2019-05-18T06:14:29.033Z,87.75
2019-05-18T06:17:02.032Z,87.09
2019-05-18T06:19:34.984Z,85.99
2019-05-18T06:22:08.174Z,85.99
2019-05-18T06:24:41.213Z,84.43
2019-05-18T06:27:14.133Z,84.43
2019-05-18T06:29:47.478Z,81.87
2019-05-18T06:32:20.374Z,81.87
2019-05-18T06:34:53.537Z,81.82
2019-05-18T06:37:26.475Z,82.10
2019-05-18T06:39:59.564Z,82.34
2019-05-18T06:42:32.531Z,82.34
2019-05-18T06:45:05.930Z,82.28
2019-05-18T06:47:38.850Z,81.80
2019-05-18T06:50:13.189Z,82.04
2019-05-18T06:52:47.213Z,82.04
2019-05-18T06:55:20.253Z,79.98
2019-05-18T06:57:56.682Z,79.98
2019-05-18T07:00:29.820Z,79.27
2019-05-18T07:03:02.904Z,79.39
2019-05-18T07:05:35.970Z,79.19
2019-05-18T07:08:08.966Z,79.53
2019-05-18T07:10:42.007Z,79.46
2019-05-18T07:13:14.949Z,78.70
2019-05-18T07:15:48.129Z,77.91
2019-05-18T07:18:20.993Z,78.54
2019-05-18T07:20:53.999Z,76.74
2019-05-18T07:23:26.899Z,76.08
2019-05-18T07:25:59.863Z,76.89
2019-05-18T07:28:32.757Z,76.28
2019-05-18T07:31:05.797Z,76.33
2019-05-18T07:33:39.044Z,74.66
2019-05-18T07:36:12.108Z,72.85
2019-05-18T07:38:45.005Z,71.03
2019-05-18T07:41:18.029Z,71.03
2019-05-18T07:43:50.975Z,68.46
2019-05-18T07:46:24.280Z,68.46
2019-05-18T07:48:57.343Z,66.44
2019-05-18T07:51:37.133Z,65.78
2019-05-18T07:54:05.795Z,64.02
2019-05-18T07:56:38.828Z,64.40
2019-05-18T07:59:11.822Z,61.10
2019-05-18T08:01:44.804Z,61.43
2019-05-18T08:04:17.769Z,59.45
2019-05-18T08:06:50.811Z,58.26
2019-05-18T08:09:23.803Z,58.26
2019-05-18T08:11:56.877Z,59.12
2019-05-18T08:14:29.906Z,58.88
2019-05-18T08:17:02.944Z,57.43
2019-05-18T08:19:35.853Z,54.40
2019-05-18T08:22:08.889Z,54.62
2019-05-18T08:24:41.788Z,51.43
2019-05-18T08:27:15.062Z,48.46
2019-05-18T08:29:47.949Z,46.31
2019-05-18T08:32:20.960Z,47.12
2019-05-18T08:34:53.861Z,47.26
2019-05-18T08:37:26.943Z,48.11
2019-05-18T08:39:59.909Z,44.35
2019-05-18T08:42:32.918Z,44.35
2019-05-18T08:45:06.245Z,39.06
2019-05-18T08:47:39.285Z,36.07
2019-05-18T08:50:13.126Z,30.85
2019-05-18T08:52:46.116Z,30.85
2019-05-18T08:55:20.578Z,31.28
2019-05-18T08:57:53.779Z,31.28
2019-05-18T09:00:26.752Z,29.52
2019-05-18T09:02:59.793Z,29.16
2019-05-18T09:05:32.739Z,28.28
2019-05-18T09:08:05.738Z,28.58
2019-05-18T09:10:38.619Z,28.37
2019-05-18T09:13:11.600Z,28.37
2019-05-18T09:15:44.905Z,27.44
2019-05-18T09:18:19.006Z,27.44
2019-05-18T09:20:52.000Z,26.92
2019-05-18T09:23:24.982Z,28.75
2019-05-18T09:25:57.850Z,30.25
2019-05-18T09:28:30.761Z,26.83
2019-05-18T09:31:03.760Z,26.83
2019-05-18T09:33:36.688Z,29.99
2019-05-18T09:36:09.602Z,29.85
2019-05-18T09:38:42.700Z,28.44
2019-05-18T09:41:15.660Z,27.84
2019-05-18T09:43:48.968Z,27.51
2019-05-18T09:46:21.982Z,27.97
2019-05-18T09:48:55.050Z,28.87
2019-05-18T09:51:28.084Z,28.87
2019-05-18T09:54:00.957Z,31.12
2019-05-18T09:56:33.836Z,34.45
2019-05-18T09:59:06.855Z,35.33
2019-05-18T10:01:39.772Z,35.33
2019-05-18T10:04:12.770Z,37.17
2019-05-18T10:06:45.753Z,37.80
2019-05-18T10:09:18.945Z,36.67
2019-05-18T10:11:52.004Z,36.40
2019-05-18T10:14:25.294Z,35.68
2019-05-18T10:16:58.535Z,34.11
2019-05-18T10:19:32.087Z,33.06
2019-05-18T10:22:05.124Z,34.61
2019-05-18T10:24:38.198Z,33.41
2019-05-18T10:27:11.081Z,34.50
2019-05-18T10:29:46.614Z,34.50
2019-05-18T10:32:19.178Z,36.11
2019-05-18T10:34:52.056Z,35.79
2019-05-18T10:37:24.904Z,36.55
2019-05-18T10:39:57.883Z,35.28
2019-05-18T10:42:30.792Z,31.77
2019-05-18T10:45:04.143Z,30.45
2019-05-18T10:47:37.116Z,27.55
2019-05-18T10:50:10.382Z,25.73
2019-05-18T10:52:43.219Z,27.46
2019-05-18T10:55:16.457Z,29.64
2019-05-18T10:57:49.520Z,28.41
2019-05-18T11:00:22.757Z,28.41
2019-05-18T11:02:55.604Z,28.33
2019-05-18T11:05:28.498Z,26.66
2019-05-18T11:08:01.338Z,28.30
2019-05-18T11:10:34.230Z,28.05
2019-05-18T11:13:07.042Z,30.29
2019-05-18T11:15:40.004Z,30.29
2019-05-18T11:18:12.910Z,30.98
2019-05-18T11:20:45.904Z,29.78
2019-05-18T11:23:18.758Z,34.01
2019-05-18T11:25:51.637Z,34.87
2019-05-18T11:28:24.466Z,37.01
2019-05-18T11:30:57.321Z,36.11
2019-05-18T11:33:30.192Z,34.46
2019-05-18T11:36:03.279Z,35.31
2019-05-18T11:38:36.115Z,35.45
2019-05-18T11:41:09.042Z,33.40
2019-05-18T11:43:41.899Z,32.17
2019-05-18T11:46:14.821Z,33.13
2019-05-18T11:48:47.667Z,33.98
2019-05-18T11:51:20.530Z,35.67
2019-05-18T11:53:58.283Z,34.09
2019-05-18T11:56:28.284Z,34.77
2019-05-18T11:59:01.317Z,35.57
2019-05-18T12:01:34.354Z,35.57
2019-05-18T12:04:07.311Z,36.63
2019-05-18T12:06:40.189Z,35.35
2019-05-18T12:09:13.060Z,35.35
2019-05-18T12:11:45.975Z,33.76
2019-05-18T12:14:18.839Z,30.98
2019-05-18T12:16:51.877Z,30.06
2019-05-18T12:19:24.714Z,28.65
2019-05-18T12:21:57.741Z,27.32
2019-05-18T12:24:30.863Z,27.60
2019-05-18T12:27:03.907Z,27.46
2019-05-18T12:29:36.737Z,26.11
2019-05-18T12:32:09.736Z,27.68
2019-05-18T12:34:45.020Z,26.27
2019-05-18T12:37:17.267Z,25.68
2019-05-18T12:39:51.350Z,25.51
2019-05-18T12:42:24.408Z,26.08
2019-05-18T12:44:57.240Z,24.92
2019-05-18T12:47:30.137Z,25.48
2019-05-18T12:50:03.390Z,25.18
2019-05-18T12:52:36.550Z,25.94
2019-05-18T12:55:10.098Z,25.94
2019-05-18T12:57:43.073Z,24.60
2019-05-18T13:00:19.508Z,24.65
2019-05-18T13:02:52.894Z,25.31
2019-05-18T13:05:25.780Z,26.79
2019-05-18T13:07:58.696Z,26.77
2019-05-18T13:10:31.543Z,26.29
2019-05-18T13:13:04.681Z,25.07
2019-05-18T13:15:37.567Z,27.21
2019-05-18T13:18:10.461Z,26.07
2019-05-18T13:20:43.303Z,26.72
2019-05-18T13:23:16.567Z,26.22
2019-05-18T13:25:49.404Z,25.93
2019-05-18T13:28:22.272Z,26.25
2019-05-18T13:30:55.200Z,26.33
2019-05-18T13:33:28.101Z,25.49
2019-05-18T13:36:00.954Z,25.53
2019-05-18T13:38:33.853Z,25.53
2019-05-18T13:41:06.883Z,26.14
2019-05-18T13:43:40.093Z,26.60
2019-05-18T13:46:13.134Z,27.60
2019-05-18T13:48:46.321Z,26.67
2019-05-18T13:51:19.197Z,26.67
2019-05-18T13:53:52.232Z,26.33
2019-05-18T13:56:25.171Z,27.09
2019-05-18T13:58:58.134Z,25.68
2019-05-18T14:01:31.158Z,26.93
2019-05-18T14:04:04.158Z,28.01
2019-05-18T14:06:37.092Z,28.23
2019-05-18T14:09:10.059Z,26.89
2019-05-18T14:11:43.022Z,26.89
2019-05-18T14:14:16.295Z,27.70
2019-05-18T14:16:49.210Z,26.78
2019-05-18T14:19:22.291Z,28.43
2019-05-18T14:21:55.130Z,27.53
2019-05-18T14:24:28.028Z,28.66
2019-05-18T14:27:00.876Z,30.04
2019-05-18T14:29:33.791Z,29.03
2019-05-18T14:32:06.898Z,27.95
2019-05-18T14:34:40.196Z,28.17
2019-05-18T14:37:13.026Z,29.97
2019-05-18T14:39:46.259Z,29.97
2019-05-18T14:42:19.097Z,30.51
2019-05-18T14:44:52.028Z,31.27
2019-05-18T14:47:27.451Z,34.24
2019-05-18T14:49:59.717Z,37.46
2019-05-18T14:52:32.626Z,36.87
2019-05-18T14:55:06.563Z,35.86
2019-05-18T14:57:39.489Z,32.64
2019-05-18T15:00:13.013Z,35.37
2019-05-18T15:02:46.160Z,37.07
2019-05-18T15:05:19.255Z,33.97
2019-05-18T15:07:52.098Z,36.07
2019-05-18T15:10:24.991Z,36.07
2019-05-18T15:12:58.117Z,37.63
2019-05-18T15:15:30.999Z,38.57
2019-05-18T15:18:03.976Z,41.57
2019-05-18T15:20:36.884Z,39.64
2019-05-18T15:23:09.721Z,38.20
2019-05-18T15:25:50.537Z,41.25
2019-05-18T15:28:17.626Z,41.25
2019-05-18T15:30:50.532Z,40.19
2019-05-18T15:33:23.717Z,36.66
2019-05-18T15:35:56.717Z,38.92
2019-05-18T15:38:29.594Z,39.89
2019-05-18T15:41:02.902Z,39.89
2019-05-18T15:43:35.737Z,34.98
2019-05-18T15:46:08.846Z,38.65
2019-05-18T15:48:41.765Z,38.40
2019-05-18T15:51:14.661Z,36.92
2019-05-18T15:53:47.578Z,39.24
2019-05-18T15:56:20.487Z,36.04
2019-05-18T15:58:53.317Z,36.00
2019-05-18T16:01:26.239Z,37.47
2019-05-18T16:03:59.244Z,38.16
2019-05-18T16:06:32.304Z,38.40
2019-05-18T16:09:05.682Z,38.76
2019-05-18T16:11:38.551Z,39.29
2019-05-18T16:14:11.473Z,39.01
2019-05-18T16:16:44.487Z,38.93
2019-05-18T16:19:17.316Z,39.16
2019-05-18T16:21:50.219Z,36.46
2019-05-18T16:24:23.084Z,35.17
2019-05-18T16:26:56.247Z,34.99
2019-05-18T16:29:29.159Z,38.39
2019-05-18T16:32:02.315Z,40.51
2019-05-18T16:34:35.165Z,41.16
2019-05-18T16:37:08.066Z,37.26
2019-05-18T16:39:40.907Z,39.92
2019-05-18T16:42:13.860Z,40.40
2019-05-18T16:44:46.702Z,40.39
2019-05-18T16:47:19.649Z,44.75
2019-05-18T16:49:52.580Z,47.38
2019-05-18T16:52:25.849Z,48.37
2019-05-18T16:54:58.768Z,48.73
2019-05-18T16:57:31.690Z,52.21
2019-05-18T17:00:05.260Z,61.88
2019-05-18T17:02:38.248Z,61.88
2019-05-18T17:05:11.385Z,67.45
2019-05-18T17:07:44.638Z,69.05
2019-05-18T17:10:18.635Z,71.06
2019-05-18T17:12:51.779Z,70.05
2019-05-18T17:15:25.008Z,70.05
2019-05-18T17:17:57.923Z,68.78
2019-05-18T17:20:30.935Z,68.33
2019-05-18T17:23:04.275Z,65.33
2019-05-18T17:25:37.125Z,65.92
2019-05-18T17:28:10.296Z,65.92
2019-05-18T17:30:43.408Z,64.69
2019-05-18T17:33:16.301Z,63.37
2019-05-18T17:35:59.868Z,63.37
2019-05-18T17:38:24.163Z,64.81
2019-05-18T17:40:57.006Z,63.92
2019-05-18T17:43:30.015Z,63.13
2019-05-18T17:46:02.919Z,62.89
2019-05-18T17:48:36.025Z,62.70
2019-05-18T17:51:08.867Z,63.78
2019-05-18T17:53:41.798Z,64.12
2019-05-18T17:56:14.704Z,62.80
2019-05-18T17:58:47.894Z,62.77
2019-05-18T18:01:20.806Z,62.77
2019-05-18T18:03:54.049Z,64.35
2019-05-18T18:06:27.313Z,64.35
2019-05-18T18:09:00.517Z,63.84
2019-05-18T18:11:33.335Z,63.44
2019-05-18T18:14:07.175Z,63.79
2019-05-18T18:16:40.014Z,63.71
2019-05-18T18:19:12.902Z,63.93
2019-05-18T18:21:45.993Z,63.81
2019-05-18T18:24:19.146Z,63.59
2019-05-18T18:26:52.253Z,64.99
2019-05-18T18:29:25.575Z,64.99
2019-05-18T18:31:58.426Z,66.46
2019-05-18T18:34:31.580Z,66.46
2019-05-18T18:37:04.522Z,66.92
2019-05-18T18:39:37.661Z,66.92
2019-05-18T18:42:10.502Z,67.45
2019-05-18T18:44:43.437Z,67.73
2019-05-18T18:47:16.227Z,70.85
2019-05-18T18:49:49.731Z,70.85
2019-05-18T18:52:22.904Z,70.78
2019-05-18T18:54:55.839Z,71.54
2019-05-18T18:57:40.633Z,72.66
2019-05-18T19:00:03.790Z,72.66
2019-05-18T19:02:36.857Z,72.91
2019-05-18T19:05:10.353Z,73.30
2019-05-18T19:07:43.312Z,74.39
2019-05-18T19:10:16.628Z,74.79
2019-05-18T19:12:49.617Z,75.12
2019-05-18T19:15:22.805Z,75.67
2019-05-18T19:17:56.044Z,75.67
2019-05-18T19:20:29.156Z,75.85
2019-05-18T19:23:02.046Z,75.79
2019-05-18T19:25:35.012Z,76.45
2019-05-18T19:28:07.945Z,76.50
2019-05-18T19:30:41.043Z,77.77
2019-05-18T19:33:14.274Z,77.29
2019-05-18T19:35:47.504Z,77.70
2019-05-18T19:38:20.396Z,77.70
2019-05-18T19:40:53.344Z,78.57
2019-05-18T19:43:26.442Z,79.10
2019-05-18T19:45:59.958Z,79.10
2019-05-18T19:48:33.044Z,80.00
2019-05-18T19:51:06.024Z,80.00
2019-05-18T19:53:39.034Z,79.64
2019-05-18T19:56:11.991Z,79.59
2019-05-18T19:58:44.896Z,79.73
2019-05-18T20:01:18.146Z,79.73
2019-05-18T20:03:51.105Z,80.14
2019-05-18T20:06:24.658Z,80.82
2019-05-18T20:08:57.810Z,80.82
2019-05-18T20:11:30.979Z,81.07
2019-05-18T20:14:04.107Z,81.47
2019-05-18T20:16:37.321Z,81.75
2019-05-18T20:19:10.347Z,82.06
2019-05-18T20:21:43.296Z,82.48
2019-05-18T20:24:16.329Z,82.48
2019-05-18T20:26:49.426Z,82.76
2019-05-18T20:29:22.375Z,82.76
2019-05-18T20:31:55.911Z,83.52
2019-05-18T20:34:28.869Z,83.75
2019-05-18T20:37:01.799Z,83.26
2019-05-18T20:39:34.683Z,83.26
2019-05-18T20:42:07.872Z,83.70
2019-05-18T20:44:40.853Z,83.71
2019-05-18T20:47:13.797Z,83.76
2019-05-18T20:49:46.668Z,83.76
2019-05-18T20:52:19.916Z,83.22
2019-05-18T20:54:52.893Z,83.22
2019-05-18T20:57:26.113Z,83.41
2019-05-18T20:59:59.105Z,82.93
2019-05-18T21:02:32.163Z,82.62
2019-05-18T21:05:05.452Z,82.62
2019-05-18T21:07:38.393Z,83.23
2019-05-18T21:10:12.201Z,83.89
2019-05-18T21:12:45.232Z,83.62
2019-05-18T21:15:19.751Z,83.62
2019-05-18T21:17:53.091Z,84.16
2019-05-18T21:20:26.223Z,84.53
2019-05-18T21:22:59.271Z,85.53
2019-05-18T21:25:32.549Z,85.68
2019-05-18T21:28:05.876Z,85.68
2019-05-18T21:30:38.845Z,85.80
2019-05-18T21:33:11.982Z,85.81
2019-05-18T21:35:44.995Z,86.48
2019-05-18T21:38:17.979Z,86.48
2019-05-18T21:40:51.090Z,86.26
2019-05-18T21:43:24.439Z,86.43
2019-05-18T21:45:57.526Z,86.43
2019-05-18T21:48:31.214Z,86.75
2019-05-18T21:51:04.110Z,86.82
2019-05-18T21:53:37.099Z,86.89
2019-05-18T21:56:10.271Z,87.26
2019-05-18T21:58:43.350Z,87.14
2019-05-18T22:01:16.519Z,87.87
2019-05-18T22:03:49.661Z,88.54
2019-05-18T22:06:23.030Z,88.54
2019-05-18T22:08:56.064Z,88.64
2019-05-18T22:11:29.120Z,88.64
2019-05-18T22:14:02.639Z,89.20
2019-05-18T22:16:35.562Z,89.56
2019-05-18T22:19:08.513Z,89.91
2019-05-18T22:21:41.475Z,90.03
2019-05-18T22:24:14.475Z,90.89
2019-05-18T22:26:47.885Z,90.77
2019-05-18T22:29:20.842Z,90.77
2019-05-18T22:31:53.756Z,91.39
2019-05-18T22:34:26.929Z,91.62
2019-05-18T22:36:59.907Z,91.78
2019-05-18T22:39:33.134Z,92.03
2019-05-18T22:42:06.059Z,92.41
2019-05-18T22:44:39.149Z,92.44
2019-05-18T22:47:12.445Z,92.45
2019-05-18T22:49:45.875Z,92.79
2019-05-18T22:52:18.883Z,91.67
2019-05-18T22:54:51.869Z,91.67
2019-05-18T22:57:25.156Z,92.15
2019-05-18T22:59:58.287Z,92.05
2019-05-18T23:02:31.249Z,92.62
2019-05-18T23:05:04.367Z,92.62
2019-05-18T23:07:37.540Z,93.13
2019-05-18T23:10:10.812Z,94.33
2019-05-18T23:12:45.176Z,94.33
2019-05-18T23:15:18.323Z,94.58
2019-05-18T23:17:51.528Z,94.99
2019-05-18T23:20:24.573Z,94.99
2019-05-18T23:22:57.519Z,95.01
2019-05-18T23:25:30.471Z,95.01
2019-05-18T23:28:03.438Z,95.43
2019-05-18T23:30:36.424Z,95.49
2019-05-18T23:33:09.340Z,95.49
2019-05-18T23:35:42.711Z,95.40
2019-05-18T23:38:15.614Z,95.39
2019-05-18T23:40:48.715Z,95.18
2019-05-18T23:43:21.778Z,95.58
2019-05-18T23:45:54.716Z,95.42
2019-05-18T23:48:27.641Z,95.30
2019-05-18T23:51:00.711Z,95.41
2019-05-18T23:53:33.962Z,95.16
2019-05-18T23:56:06.977Z,95.43
2019-05-18T23:58:40.102Z,95.43
